sensor_id;sensor_type;location;lat;lon;timestamp;P1;durP1;ratioP1;P2;durP2;ratioP2
59474;SDS011;45288;51.136;16.928;2023-08-20T00:01:55;205.48;;;188.65;;
59474;SDS011;45288;51.136;16.928;2023-08-20T00:04:22;213.55;;;196.40;;
59474;SDS011;45288;51.136;16.928;2023-08-20T00:06:50;194.60;;;179.02;;
59474;SDS011;45288;51.136;16.928;2023-08-20T00:09:16;132.32;;;122.00;;
59474;SDS011;45288;51.136;16.928;2023-08-20T00:11:42;258.23;;;236.73;;
59474;SDS011;45288;51.136;16.928;2023-08-20T00:14:14;187.50;;;172.48;;
59474;SDS011;45288;51.136;16.928;2023-08-20T00:16:40;31.73;;;16.33;;
59474;SDS011;45288;51.136;16.928;2023-08-20T00:19:06;31.95;;;16.52;;
59474;SDS011;45288;51.136;16.928;2023-08-20T00:21:32;28.97;;;15.57;;
59474;SDS011;45288;51.136;16.928;2023-08-20T00:23:58;31.40;;;16.27;;
59474;SDS011;45288;51.136;16.928;2023-08-20T00:26:23;28.67;;;15.00;;
59474;SDS011;45288;51.136;16.928;2023-08-20T00:28:49;32.97;;;15.33;;
59474;SDS011;45288;51.136;16.928;2023-08-20T00:31:15;30.13;;;15.10;;
59474;SDS011;45288;51.136;16.928;2023-08-20T00:33:41;34.55;;;17.92;;
59474;SDS011;45288;51.136;16.928;2023-08-20T00:36:07;34.95;;;19.35;;
59474;SDS011;45288;51.136;16.928;2023-08-20T00:38:33;35.10;;;19.73;;
59474;SDS011;45288;51.136;16.928;2023-08-20T00:41:01;35.58;;;21.33;;
59474;SDS011;45288;51.136;16.928;2023-08-20T00:43:26;34.50;;;19.77;;
59474;SDS011;45288;51.136;16.928;2023-08-20T00:45:52;40.17;;;20.00;;
59474;SDS011;45288;51.136;16.928;2023-08-20T00:48:18;35.03;;;19.07;;
59474;SDS011;45288;51.136;16.928;2023-08-20T00:50:44;34.95;;;18.77;;
59474;SDS011;45288;51.136;16.928;2023-08-20T00:53:10;36.33;;;18.98;;
59474;SDS011;45288;51.136;16.928;2023-08-20T00:55:37;33.88;;;17.25;;
59474;SDS011;45288;51.136;16.928;2023-08-20T00:58:03;36.50;;;18.93;;
59474;SDS011;45288;51.136;16.928;2023-08-20T01:00:29;32.15;;;18.10;;
59474;SDS011;45288;51.136;16.928;2023-08-20T01:02:55;34.40;;;18.60;;
59474;SDS011;45288;51.136;16.928;2023-08-20T01:05:21;32.72;;;18.55;;
59474;SDS011;45288;51.136;16.928;2023-08-20T01:13:01;34.33;;;17.53;;
59474;SDS011;45288;51.136;16.928;2023-08-20T01:15:28;30.73;;;17.83;;
59474;SDS011;45288;51.136;16.928;2023-08-20T01:17:54;40.17;;;20.67;;
59474;SDS011;45288;51.136;16.928;2023-08-20T01:20:20;31.33;;;18.63;;
59474;SDS011;45288;51.136;16.928;2023-08-20T01:30:26;44.13;;;21.67;;
59474;SDS011;45288;51.136;16.928;2023-08-20T01:32:52;45.67;;;23.23;;
59474;SDS011;45288;51.136;16.928;2023-08-20T01:35:19;46.13;;;23.08;;
59474;SDS011;45288;51.136;16.928;2023-08-20T01:37:45;43.25;;;21.98;;
59474;SDS011;45288;51.136;16.928;2023-08-20T01:40:11;46.30;;;22.30;;
59474;SDS011;45288;51.136;16.928;2023-08-20T01:42:37;42.23;;;21.57;;
59474;SDS011;45288;51.136;16.928;2023-08-20T01:45:03;44.83;;;22.38;;
59474;SDS011;45288;51.136;16.928;2023-08-20T01:47:29;38.88;;;20.83;;
59474;SDS011;45288;51.136;16.928;2023-08-20T01:49:55;41.63;;;22.03;;
59474;SDS011;45288;51.136;16.928;2023-08-20T01:52:21;143.15;;;131.15;;
59474;SDS011;45288;51.136;16.928;2023-08-20T01:54:47;167.27;;;153.73;;
59474;SDS011;45288;51.136;16.928;2023-08-20T01:57:14;121.70;;;111.40;;
59474;SDS011;45288;51.136;16.928;2023-08-20T01:59:40;35.75;;;19.25;;
59474;SDS011;45288;51.136;16.928;2023-08-20T02:02:06;49.45;;;33.65;;
59474;SDS011;45288;51.136;16.928;2023-08-20T02:04:31;37.63;;;20.67;;
59474;SDS011;45288;51.136;16.928;2023-08-20T02:06:57;37.28;;;19.35;;
59474;SDS011;45288;51.136;16.928;2023-08-20T02:09:23;34.58;;;19.13;;
59474;SDS011;45288;51.136;16.928;2023-08-20T02:11:50;34.33;;;18.87;;
59474;SDS011;45288;51.136;16.928;2023-08-20T02:14:16;38.90;;;20.27;;
59474;SDS011;45288;51.136;16.928;2023-08-20T02:16:42;41.05;;;26.65;;
59474;SDS011;45288;51.136;16.928;2023-08-20T02:19:08;58.20;;;51.78;;
59474;SDS011;45288;51.136;16.928;2023-08-20T02:21:33;63.05;;;56.60;;
59474;SDS011;45288;51.136;16.928;2023-08-20T02:23:59;53.90;;;43.33;;
59474;SDS011;45288;51.136;16.928;2023-08-20T02:26:25;45.37;;;29.10;;
59474;SDS011;45288;51.136;16.928;2023-08-20T02:28:51;44.13;;;23.20;;
59474;SDS011;45288;51.136;16.928;2023-08-20T02:31:16;49.80;;;33.10;;
59474;SDS011;45288;51.136;16.928;2023-08-20T02:33:42;41.22;;;21.88;;
59474;SDS011;45288;51.136;16.928;2023-08-20T02:36:12;43.70;;;23.43;;
59474;SDS011;45288;51.136;16.928;2023-08-20T02:38:38;36.25;;;20.35;;
59474;SDS011;45288;51.136;16.928;2023-08-20T02:41:04;45.25;;;22.30;;
59474;SDS011;45288;51.136;16.928;2023-08-20T02:43:32;37.20;;;19.23;;
59474;SDS011;45288;51.136;16.928;2023-08-20T02:46:00;44.63;;;20.85;;
59474;SDS011;45288;51.136;16.928;2023-08-20T02:48:26;36.57;;;18.70;;
59474;SDS011;45288;51.136;16.928;2023-08-20T02:50:53;42.28;;;20.42;;
59474;SDS011;45288;51.136;16.928;2023-08-20T02:53:20;49.15;;;21.23;;
59474;SDS011;45288;51.136;16.928;2023-08-20T02:55:46;42.15;;;19.85;;
59474;SDS011;45288;51.136;16.928;2023-08-20T02:58:11;35.30;;;18.40;;
59474;SDS011;45288;51.136;16.928;2023-08-20T03:00:37;31.77;;;18.30;;
59474;SDS011;45288;51.136;16.928;2023-08-20T03:03:04;35.67;;;18.30;;
59474;SDS011;45288;51.136;16.928;2023-08-20T03:05:33;32.35;;;17.50;;
59474;SDS011;45288;51.136;16.928;2023-08-20T03:07:59;37.22;;;18.58;;
59474;SDS011;45288;51.136;16.928;2023-08-20T03:10:24;34.37;;;18.70;;
59474;SDS011;45288;51.136;16.928;2023-08-20T03:12:50;31.95;;;18.60;;
59474;SDS011;45288;51.136;16.928;2023-08-20T03:15:16;33.78;;;18.33;;
59474;SDS011;45288;51.136;16.928;2023-08-20T03:17:42;28.33;;;16.87;;
59474;SDS011;45288;51.136;16.928;2023-08-20T03:20:08;34.00;;;17.85;;
59474;SDS011;45288;51.136;16.928;2023-08-20T03:22:35;34.88;;;18.00;;
59474;SDS011;45288;51.136;16.928;2023-08-20T03:25:01;39.67;;;18.63;;
59474;SDS011;45288;51.136;16.928;2023-08-20T03:27:27;36.63;;;18.45;;
59474;SDS011;45288;51.136;16.928;2023-08-20T03:29:53;41.28;;;20.33;;
59474;SDS011;45288;51.136;16.928;2023-08-20T03:32:19;43.55;;;21.65;;
59474;SDS011;45288;51.136;16.928;2023-08-20T03:34:45;37.53;;;20.88;;
59474;SDS011;45288;51.136;16.928;2023-08-20T03:37:15;44.78;;;22.92;;
59474;SDS011;45288;51.136;16.928;2023-08-20T03:39:41;35.85;;;21.40;;
59474;SDS011;45288;51.136;16.928;2023-08-20T03:42:07;38.43;;;20.70;;
59474;SDS011;45288;51.136;16.928;2023-08-20T03:44:32;35.65;;;19.95;;
59474;SDS011;45288;51.136;16.928;2023-08-20T03:46:58;38.60;;;19.33;;
59474;SDS011;45288;51.136;16.928;2023-08-20T03:49:25;36.53;;;19.88;;
59474;SDS011;45288;51.136;16.928;2023-08-20T03:51:51;41.47;;;20.17;;
59474;SDS011;45288;51.136;16.928;2023-08-20T03:54:17;41.30;;;20.42;;
59474;SDS011;45288;51.136;16.928;2023-08-20T03:56:43;41.33;;;20.02;;
59474;SDS011;45288;51.136;16.928;2023-08-20T03:59:09;38.05;;;20.17;;
59474;SDS011;45288;51.136;16.928;2023-08-20T04:01:34;42.20;;;25.75;;
59474;SDS011;45288;51.136;16.928;2023-08-20T04:04:02;47.30;;;23.52;;
59474;SDS011;45288;51.136;16.928;2023-08-20T04:06:28;40.22;;;21.45;;
59474;SDS011;45288;51.136;16.928;2023-08-20T04:08:54;44.80;;;22.95;;
59474;SDS011;45288;51.136;16.928;2023-08-20T04:11:20;45.97;;;22.93;;
59474;SDS011;45288;51.136;16.928;2023-08-20T04:13:45;48.73;;;23.13;;
59474;SDS011;45288;51.136;16.928;2023-08-20T04:16:12;50.17;;;28.17;;
59474;SDS011;45288;51.136;16.928;2023-08-20T04:18:38;42.47;;;21.85;;
59474;SDS011;45288;51.136;16.928;2023-08-20T04:21:04;44.25;;;23.08;;
59474;SDS011;45288;51.136;16.928;2023-08-20T04:23:33;108.90;;;99.63;;
59474;SDS011;45288;51.136;16.928;2023-08-20T04:25:59;43.08;;;21.33;;
59474;SDS011;45288;51.136;16.928;2023-08-20T04:28:25;42.27;;;22.50;;
59474;SDS011;45288;51.136;16.928;2023-08-20T04:30:54;51.17;;;25.67;;
59474;SDS011;45288;51.136;16.928;2023-08-20T04:33:25;55.35;;;27.65;;
59474;SDS011;45288;51.136;16.928;2023-08-20T04:35:52;54.80;;;27.13;;
59474;SDS011;45288;51.136;16.928;2023-08-20T04:38:17;57.40;;;27.13;;
59474;SDS011;45288;51.136;16.928;2023-08-20T04:40:47;51.53;;;26.77;;
59474;SDS011;45288;51.136;16.928;2023-08-20T04:43:13;46.75;;;25.17;;
59474;SDS011;45288;51.136;16.928;2023-08-20T04:45:39;50.38;;;25.95;;
59474;SDS011;45288;51.136;16.928;2023-08-20T04:48:04;47.77;;;24.30;;
59474;SDS011;45288;51.136;16.928;2023-08-20T04:50:30;39.08;;;22.58;;
59474;SDS011;45288;51.136;16.928;2023-08-20T04:52:56;46.35;;;23.50;;
59474;SDS011;45288;51.136;16.928;2023-08-20T04:55:27;45.08;;;23.63;;
59474;SDS011;45288;51.136;16.928;2023-08-20T04:57:53;40.87;;;23.87;;
59474;SDS011;45288;51.136;16.928;2023-08-20T05:00:18;43.90;;;23.65;;
59474;SDS011;45288;51.136;16.928;2023-08-20T05:02:51;41.55;;;23.50;;
59474;SDS011;45288;51.136;16.928;2023-08-20T05:05:20;44.00;;;23.45;;
59474;SDS011;45288;51.136;16.928;2023-08-20T05:07:45;40.20;;;23.02;;
59474;SDS011;45288;51.136;16.928;2023-08-20T05:10:12;41.72;;;22.30;;
59474;SDS011;45288;51.136;16.928;2023-08-20T05:12:38;40.10;;;21.88;;
59474;SDS011;45288;51.136;16.928;2023-08-20T05:15:04;39.23;;;21.50;;
59474;SDS011;45288;51.136;16.928;2023-08-20T05:17:31;39.00;;;20.85;;
59474;SDS011;45288;51.136;16.928;2023-08-20T05:19:57;39.40;;;20.50;;
59474;SDS011;45288;51.136;16.928;2023-08-20T05:22:23;42.75;;;21.48;;
59474;SDS011;45288;51.136;16.928;2023-08-20T05:24:48;38.77;;;20.40;;
59474;SDS011;45288;51.136;16.928;2023-08-20T05:27:15;44.47;;;21.98;;
59474;SDS011;45288;51.136;16.928;2023-08-20T05:29:44;36.10;;;19.50;;
59474;SDS011;45288;51.136;16.928;2023-08-20T05:32:10;40.93;;;20.37;;
59474;SDS011;45288;51.136;16.928;2023-08-20T05:34:36;37.90;;;19.67;;
59474;SDS011;45288;51.136;16.928;2023-08-20T05:37:02;39.30;;;19.63;;
59474;SDS011;45288;51.136;16.928;2023-08-20T05:39:40;36.67;;;19.87;;
59474;SDS011;45288;51.136;16.928;2023-08-20T05:42:07;45.13;;;21.38;;
59474;SDS011;45288;51.136;16.928;2023-08-20T05:44:33;37.08;;;20.00;;
59474;SDS011;45288;51.136;16.928;2023-08-20T05:46:59;43.55;;;20.83;;
59474;SDS011;45288;51.136;16.928;2023-08-20T05:49:26;43.00;;;20.50;;
59474;SDS011;45288;51.136;16.928;2023-08-20T05:51:52;38.30;;;20.27;;
59474;SDS011;45288;51.136;16.928;2023-08-20T05:54:18;40.70;;;21.17;;
59474;SDS011;45288;51.136;16.928;2023-08-20T05:56:44;38.35;;;19.83;;
59474;SDS011;45288;51.136;16.928;2023-08-20T05:59:10;39.50;;;20.35;;
59474;SDS011;45288;51.136;16.928;2023-08-20T06:01:36;34.33;;;18.63;;
59474;SDS011;45288;51.136;16.928;2023-08-20T06:04:02;58.92;;;48.42;;
59474;SDS011;45288;51.136;16.928;2023-08-20T06:06:28;41.37;;;19.17;;
59474;SDS011;45288;51.136;16.928;2023-08-20T06:08:53;87.63;;;78.78;;
59474;SDS011;45288;51.136;16.928;2023-08-20T06:11:19;36.70;;;20.45;;
59474;SDS011;45288;51.136;16.928;2023-08-20T06:13:45;29.77;;;16.45;;
59474;SDS011;45288;51.136;16.928;2023-08-20T06:16:11;33.00;;;16.88;;
59474;SDS011;45288;51.136;16.928;2023-08-20T06:18:37;30.07;;;15.57;;
59474;SDS011;45288;51.136;16.928;2023-08-20T06:21:03;32.60;;;16.33;;
59474;SDS011;45288;51.136;16.928;2023-08-20T06:23:29;34.20;;;16.87;;
59474;SDS011;45288;51.136;16.928;2023-08-20T06:25:54;33.93;;;16.20;;
59474;SDS011;45288;51.136;16.928;2023-08-20T06:28:21;34.60;;;17.92;;
59474;SDS011;45288;51.136;16.928;2023-08-20T06:30:46;34.28;;;21.25;;
59474;SDS011;45288;51.136;16.928;2023-08-20T06:33:12;31.70;;;15.52;;
59474;SDS011;45288;51.136;16.928;2023-08-20T06:35:38;31.37;;;17.03;;
59474;SDS011;45288;51.136;16.928;2023-08-20T06:38:04;42.75;;;23.98;;
59474;SDS011;45288;51.136;16.928;2023-08-20T06:40:29;37.43;;;22.00;;
59474;SDS011;45288;51.136;16.928;2023-08-20T06:42:55;43.38;;;33.50;;
59474;SDS011;45288;51.136;16.928;2023-08-20T06:45:21;36.77;;;21.07;;
59474;SDS011;45288;51.136;16.928;2023-08-20T06:47:47;36.93;;;31.33;;
59474;SDS011;45288;51.136;16.928;2023-08-20T06:50:12;78.03;;;70.90;;
59474;SDS011;45288;51.136;16.928;2023-08-20T06:52:38;257.92;;;236.52;;
59474;SDS011;45288;51.136;16.928;2023-08-20T06:55:03;466.95;;;425.92;;
59474;SDS011;45288;51.136;16.928;2023-08-20T06:57:30;194.52;;;178.20;;
59474;SDS011;45288;51.136;16.928;2023-08-20T06:59:55;266.47;;;242.70;;
59474;SDS011;45288;51.136;16.928;2023-08-20T07:02:21;30.60;;;14.90;;
59474;SDS011;45288;51.136;16.928;2023-08-20T07:04:46;28.13;;;14.13;;
59474;SDS011;45288;51.136;16.928;2023-08-20T07:07:12;31.17;;;15.03;;
59474;SDS011;45288;51.136;16.928;2023-08-20T07:09:38;31.30;;;15.10;;
59474;SDS011;45288;51.136;16.928;2023-08-20T07:12:05;27.03;;;14.07;;
59474;SDS011;45288;51.136;16.928;2023-08-20T07:14:30;31.65;;;14.85;;
59474;SDS011;45288;51.136;16.928;2023-08-20T07:16:56;28.60;;;14.60;;
59474;SDS011;45288;51.136;16.928;2023-08-20T07:19:23;31.88;;;15.13;;
59474;SDS011;45288;51.136;16.928;2023-08-20T07:21:48;32.23;;;18.37;;
59474;SDS011;45288;51.136;16.928;2023-08-20T07:24:15;31.83;;;15.63;;
59474;SDS011;45288;51.136;16.928;2023-08-20T07:26:40;34.37;;;22.83;;
59474;SDS011;45288;51.136;16.928;2023-08-20T07:29:06;117.70;;;105.63;;
59474;SDS011;45288;51.136;16.928;2023-08-20T07:31:33;30.20;;;15.03;;
59474;SDS011;45288;51.136;16.928;2023-08-20T07:34:00;26.75;;;14.60;;
59474;SDS011;45288;51.136;16.928;2023-08-20T07:36:25;32.97;;;15.75;;
59474;SDS011;45288;51.136;16.928;2023-08-20T07:38:52;30.67;;;14.97;;
59474;SDS011;45288;51.136;16.928;2023-08-20T07:41:18;45.10;;;35.45;;
59474;SDS011;45288;51.136;16.928;2023-08-20T07:43:45;29.95;;;16.77;;
59474;SDS011;45288;51.136;16.928;2023-08-20T07:46:11;36.27;;;22.63;;
59474;SDS011;45288;51.136;16.928;2023-08-20T07:48:36;38.05;;;33.88;;
59474;SDS011;45288;51.136;16.928;2023-08-20T07:51:02;130.75;;;120.30;;
59474;SDS011;45288;51.136;16.928;2023-08-20T07:53:29;190.77;;;174.95;;
59474;SDS011;45288;51.136;16.928;2023-08-20T07:56:00;98.77;;;90.60;;
59474;SDS011;45288;51.136;16.928;2023-08-20T07:58:26;304.17;;;277.37;;
59474;SDS011;45288;51.136;16.928;2023-08-20T08:00:52;131.30;;;121.00;;
59474;SDS011;45288;51.136;16.928;2023-08-20T08:03:18;1093.30;;;992.88;;
59474;SDS011;45288;51.136;16.928;2023-08-20T08:05:47;465.00;;;422.98;;
59474;SDS011;45288;51.136;16.928;2023-08-20T08:08:14;334.90;;;305.83;;
59474;SDS011;45288;51.136;16.928;2023-08-20T08:10:40;666.97;;;610.80;;
59474;SDS011;45288;51.136;16.928;2023-08-20T08:13:05;386.00;;;351.83;;
59474;SDS011;45288;51.136;16.928;2023-08-20T08:15:31;446.27;;;406.30;;
59474;SDS011;45288;51.136;16.928;2023-08-20T08:17:57;513.53;;;466.87;;
59474;SDS011;45288;51.136;16.928;2023-08-20T08:20:24;287.50;;;262.73;;
59474;SDS011;45288;51.136;16.928;2023-08-20T08:22:49;274.43;;;251.53;;
59474;SDS011;45288;51.136;16.928;2023-08-20T08:25:15;184.95;;;169.35;;
59474;SDS011;45288;51.136;16.928;2023-08-20T08:27:41;458.27;;;417.30;;
59474;SDS011;45288;51.136;16.928;2023-08-20T08:30:07;31.70;;;14.75;;
59474;SDS011;45288;51.136;16.928;2023-08-20T08:32:32;31.88;;;14.18;;
59474;SDS011;45288;51.136;16.928;2023-08-20T08:34:58;26.55;;;13.23;;
59474;SDS011;45288;51.136;16.928;2023-08-20T08:37:24;34.07;;;14.70;;
59474;SDS011;45288;51.136;16.928;2023-08-20T08:39:49;23.00;;;12.17;;
59474;SDS011;45288;51.136;16.928;2023-08-20T08:42:15;25.83;;;12.80;;
59474;SDS011;45288;51.136;16.928;2023-08-20T08:44:41;24.50;;;12.82;;
59474;SDS011;45288;51.136;16.928;2023-08-20T08:47:08;25.58;;;13.35;;
59474;SDS011;45288;51.136;16.928;2023-08-20T08:49:34;25.73;;;12.73;;
59474;SDS011;45288;51.136;16.928;2023-08-20T08:52:00;24.73;;;13.20;;
59474;SDS011;45288;51.136;16.928;2023-08-20T08:54:26;28.63;;;13.35;;
59474;SDS011;45288;51.136;16.928;2023-08-20T08:56:52;27.30;;;13.18;;
59474;SDS011;45288;51.136;16.928;2023-08-20T08:59:18;28.60;;;13.57;;
59474;SDS011;45288;51.136;16.928;2023-08-20T09:01:44;29.38;;;19.95;;
59474;SDS011;45288;51.136;16.928;2023-08-20T09:04:10;32.03;;;15.13;;
59474;SDS011;45288;51.136;16.928;2023-08-20T09:06:45;26.27;;;16.10;;
59474;SDS011;45288;51.136;16.928;2023-08-20T09:09:11;35.13;;;18.27;;
59474;SDS011;45288;51.136;16.928;2023-08-20T09:11:38;32.60;;;22.53;;
59474;SDS011;45288;51.136;16.928;2023-08-20T09:14:03;35.75;;;23.45;;
59474;SDS011;45288;51.136;16.928;2023-08-20T09:16:30;25.87;;;13.00;;
59474;SDS011;45288;51.136;16.928;2023-08-20T09:18:57;25.95;;;12.15;;
59474;SDS011;45288;51.136;16.928;2023-08-20T09:21:26;27.40;;;12.40;;
59474;SDS011;45288;51.136;16.928;2023-08-20T09:23:53;27.05;;;12.82;;
59474;SDS011;45288;51.136;16.928;2023-08-20T09:26:19;32.00;;;13.90;;
59474;SDS011;45288;51.136;16.928;2023-08-20T09:28:46;26.77;;;13.15;;
59474;SDS011;45288;51.136;16.928;2023-08-20T09:31:12;30.35;;;14.10;;
59474;SDS011;45288;51.136;16.928;2023-08-20T09:33:48;30.33;;;13.77;;
59474;SDS011;45288;51.136;16.928;2023-08-20T09:36:14;29.20;;;14.03;;
59474;SDS011;45288;51.136;16.928;2023-08-20T09:38:40;24.75;;;12.82;;
59474;SDS011;45288;51.136;16.928;2023-08-20T09:41:05;29.27;;;13.98;;
59474;SDS011;45288;51.136;16.928;2023-08-20T09:43:33;281.27;;;256.43;;
59474;SDS011;45288;51.136;16.928;2023-08-20T09:46:03;642.92;;;584.13;;
59474;SDS011;45288;51.136;16.928;2023-08-20T09:48:29;264.38;;;241.85;;
59474;SDS011;45288;51.136;16.928;2023-08-20T09:50:58;478.73;;;435.00;;
59474;SDS011;45288;51.136;16.928;2023-08-20T09:53:35;99.40;;;91.10;;
59474;SDS011;45288;51.136;16.928;2023-08-20T09:56:15;103.07;;;94.28;;
59474;SDS011;45288;51.136;16.928;2023-08-20T09:58:41;35.97;;;27.25;;
59474;SDS011;45288;51.136;16.928;2023-08-20T10:01:06;35.93;;;31.63;;
59474;SDS011;45288;51.136;16.928;2023-08-20T10:03:32;86.13;;;78.40;;
59474;SDS011;45288;51.136;16.928;2023-08-20T10:05:58;47.35;;;42.53;;
59474;SDS011;45288;51.136;16.928;2023-08-20T10:08:25;65.75;;;59.65;;
59474;SDS011;45288;51.136;16.928;2023-08-20T10:10:51;207.63;;;189.98;;
59474;SDS011;45288;51.136;16.928;2023-08-20T10:13:17;351.70;;;319.40;;
59474;SDS011;45288;51.136;16.928;2023-08-20T10:15:46;353.15;;;322.00;;
59474;SDS011;45288;51.136;16.928;2023-08-20T10:18:11;412.73;;;375.67;;
59474;SDS011;45288;51.136;16.928;2023-08-20T10:20:38;159.18;;;146.18;;
59474;SDS011;45288;51.136;16.928;2023-08-20T10:23:05;221.82;;;202.55;;
59474;SDS011;45288;51.136;16.928;2023-08-20T10:25:31;199.55;;;182.38;;
59474;SDS011;45288;51.136;16.928;2023-08-20T10:30:38;184.43;;;168.82;;
59474;SDS011;45288;51.136;16.928;2023-08-20T10:33:04;110.87;;;101.20;;
59474;SDS011;45288;51.136;16.928;2023-08-20T10:38:06;299.75;;;272.58;;
59474;SDS011;45288;51.136;16.928;2023-08-20T10:43:28;467.02;;;424.25;;
59474;SDS011;45288;51.136;16.928;2023-08-20T10:46:37;465.47;;;423.37;;
59474;SDS011;45288;51.136;16.928;2023-08-20T10:48:50;22.90;;;13.20;;
59474;SDS011;45288;51.136;16.928;2023-08-20T10:53:43;27.03;;;15.27;;
59474;SDS011;45288;51.136;16.928;2023-08-20T10:56:16;28.27;;;15.57;;
59474;SDS011;45288;51.136;16.928;2023-08-20T10:58:43;31.08;;;20.98;;
59474;SDS011;45288;51.136;16.928;2023-08-20T11:01:12;118.00;;;108.40;;
59474;SDS011;45288;51.136;16.928;2023-08-20T11:03:39;190.07;;;174.23;;
59474;SDS011;45288;51.136;16.928;2023-08-20T11:06:05;305.50;;;278.48;;
59474;SDS011;45288;51.136;16.928;2023-08-20T11:08:32;26.42;;;14.57;;
59474;SDS011;45288;51.136;16.928;2023-08-20T11:10:57;26.13;;;14.00;;
59474;SDS011;45288;51.136;16.928;2023-08-20T11:13:24;25.97;;;14.23;;
59474;SDS011;45288;51.136;16.928;2023-08-20T11:15:50;25.58;;;14.68;;
59474;SDS011;45288;51.136;16.928;2023-08-20T11:18:16;24.77;;;14.37;;
59474;SDS011;45288;51.136;16.928;2023-08-20T11:20:41;24.77;;;14.10;;
59474;SDS011;45288;51.136;16.928;2023-08-20T11:23:08;22.63;;;13.70;;
59474;SDS011;45288;51.136;16.928;2023-08-20T11:25:34;26.10;;;14.68;;
59474;SDS011;45288;51.136;16.928;2023-08-20T11:28:00;23.63;;;13.67;;
59474;SDS011;45288;51.136;16.928;2023-08-20T11:30:29;24.95;;;14.25;;
59474;SDS011;45288;51.136;16.928;2023-08-20T11:32:54;23.83;;;13.77;;
59474;SDS011;45288;51.136;16.928;2023-08-20T11:35:20;22.98;;;13.88;;
59474;SDS011;45288;51.136;16.928;2023-08-20T11:37:46;23.03;;;13.97;;
59474;SDS011;45288;51.136;16.928;2023-08-20T11:40:12;25.80;;;14.57;;
59474;SDS011;45288;51.136;16.928;2023-08-20T11:42:38;22.50;;;13.63;;
59474;SDS011;45288;51.136;16.928;2023-08-20T11:45:03;24.20;;;13.93;;
59474;SDS011;45288;51.136;16.928;2023-08-20T11:47:29;28.07;;;15.53;;
59474;SDS011;45288;51.136;16.928;2023-08-20T11:50:04;22.65;;;14.07;;
59474;SDS011;45288;51.136;16.928;2023-08-20T11:52:31;29.08;;;14.82;;
59474;SDS011;45288;51.136;16.928;2023-08-20T11:54:56;24.83;;;14.57;;
59474;SDS011;45288;51.136;16.928;2023-08-20T11:57:22;53.90;;;48.10;;
59474;SDS011;45288;51.136;16.928;2023-08-20T11:59:48;22.10;;;13.68;;
59474;SDS011;45288;51.136;16.928;2023-08-20T12:02:13;29.80;;;15.27;;
59474;SDS011;45288;51.136;16.928;2023-08-20T12:04:39;28.13;;;14.60;;
59474;SDS011;45288;51.136;16.928;2023-08-20T12:07:07;29.13;;;15.10;;
59474;SDS011;45288;51.136;16.928;2023-08-20T12:09:33;25.85;;;14.65;;
59474;SDS011;45288;51.136;16.928;2023-08-20T12:11:59;25.10;;;14.27;;
59474;SDS011;45288;51.136;16.928;2023-08-20T12:14:25;31.55;;;18.75;;
59474;SDS011;45288;51.136;16.928;2023-08-20T12:16:53;29.67;;;15.50;;
59474;SDS011;45288;51.136;16.928;2023-08-20T12:19:19;28.33;;;14.02;;
59474;SDS011;45288;51.136;16.928;2023-08-20T12:21:44;30.55;;;27.10;;
59474;SDS011;45288;51.136;16.928;2023-08-20T12:24:11;67.03;;;60.35;;
59474;SDS011;45288;51.136;16.928;2023-08-20T12:26:37;255.73;;;233.70;;
59474;SDS011;45288;51.136;16.928;2023-08-20T12:29:03;205.15;;;187.63;;
59474;SDS011;45288;51.136;16.928;2023-08-20T12:31:28;412.07;;;373.87;;
59474;SDS011;45288;51.136;16.928;2023-08-20T12:33:54;151.75;;;139.45;;
59474;SDS011;45288;51.136;16.928;2023-08-20T12:36:20;136.57;;;125.43;;
59474;SDS011;45288;51.136;16.928;2023-08-20T12:38:45;203.90;;;186.57;;
59474;SDS011;45288;51.136;16.928;2023-08-20T12:41:11;327.93;;;298.60;;
59474;SDS011;45288;51.136;16.928;2023-08-20T12:43:37;240.02;;;218.77;;
59474;SDS011;45288;51.136;16.928;2023-08-20T12:46:02;444.52;;;402.92;;
59474;SDS011;45288;51.136;16.928;2023-08-20T12:48:29;36.30;;;23.97;;
59474;SDS011;45288;51.136;16.928;2023-08-20T12:50:55;21.55;;;12.75;;
59474;SDS011;45288;51.136;16.928;2023-08-20T12:53:21;41.87;;;31.83;;
59474;SDS011;45288;51.136;16.928;2023-08-20T12:55:47;86.18;;;78.95;;
59474;SDS011;45288;51.136;16.928;2023-08-20T12:58:12;22.33;;;12.48;;
59474;SDS011;45288;51.136;16.928;2023-08-20T13:00:38;26.58;;;13.38;;
59474;SDS011;45288;51.136;16.928;2023-08-20T13:03:04;22.63;;;12.15;;
59474;SDS011;45288;51.136;16.928;2023-08-20T13:05:30;22.00;;;13.02;;
59474;SDS011;45288;51.136;16.928;2023-08-20T13:07:56;21.48;;;13.00;;
59474;SDS011;45288;51.136;16.928;2023-08-20T13:10:22;25.05;;;12.82;;
59474;SDS011;45288;51.136;16.928;2023-08-20T13:12:49;22.55;;;12.57;;
59474;SDS011;45288;51.136;16.928;2023-08-20T13:15:16;22.05;;;12.80;;
59474;SDS011;45288;51.136;16.928;2023-08-20T13:17:42;23.77;;;12.68;;
59474;SDS011;45288;51.136;16.928;2023-08-20T13:20:08;23.42;;;12.40;;
59474;SDS011;45288;51.136;16.928;2023-08-20T13:22:33;23.63;;;12.25;;
59474;SDS011;45288;51.136;16.928;2023-08-20T13:25:00;22.05;;;11.85;;
59474;SDS011;45288;51.136;16.928;2023-08-20T13:27:25;24.05;;;12.60;;
59474;SDS011;45288;51.136;16.928;2023-08-20T13:29:51;21.67;;;12.07;;
59474;SDS011;45288;51.136;16.928;2023-08-20T13:32:17;22.77;;;12.20;;
59474;SDS011;45288;51.136;16.928;2023-08-20T13:34:43;28.35;;;14.00;;
59474;SDS011;45288;51.136;16.928;2023-08-20T13:37:08;24.88;;;11.40;;
59474;SDS011;45288;51.136;16.928;2023-08-20T13:39:34;25.15;;;11.90;;
59474;SDS011;45288;51.136;16.928;2023-08-20T13:41:59;23.30;;;11.88;;
59474;SDS011;45288;51.136;16.928;2023-08-20T13:44:25;26.43;;;11.80;;
59474;SDS011;45288;51.136;16.928;2023-08-20T13:46:51;24.10;;;11.03;;
59474;SDS011;45288;51.136;16.928;2023-08-20T13:49:16;25.27;;;10.53;;
59474;SDS011;45288;51.136;16.928;2023-08-20T13:51:42;19.50;;;9.40;;
59474;SDS011;45288;51.136;16.928;2023-08-20T13:54:08;18.60;;;9.50;;
59474;SDS011;45288;51.136;16.928;2023-08-20T13:56:34;20.83;;;10.00;;
59474;SDS011;45288;51.136;16.928;2023-08-20T13:58:59;22.02;;;10.48;;
59474;SDS011;45288;51.136;16.928;2023-08-20T14:01:25;21.98;;;10.82;;
59474;SDS011;45288;51.136;16.928;2023-08-20T14:03:51;20.53;;;10.40;;
59474;SDS011;45288;51.136;16.928;2023-08-20T14:06:17;23.85;;;11.68;;
59474;SDS011;45288;51.136;16.928;2023-08-20T14:08:43;22.40;;;11.07;;
59474;SDS011;45288;51.136;16.928;2023-08-20T14:11:09;21.93;;;11.03;;
59474;SDS011;45288;51.136;16.928;2023-08-20T14:13:34;22.02;;;10.73;;
59474;SDS011;45288;51.136;16.928;2023-08-20T14:16:01;18.27;;;10.02;;
59474;SDS011;45288;51.136;16.928;2023-08-20T14:18:27;18.02;;;10.30;;
59474;SDS011;45288;51.136;16.928;2023-08-20T14:20:53;18.13;;;10.77;;
59474;SDS011;45288;51.136;16.928;2023-08-20T14:23:19;18.80;;;9.95;;